Flight Information

DEPARTURE
DENVER, CO
Elevation:
5884
Runways:
17R/35L - 7001x75 - ASPH-G
10/28 - 4800x75 - ASPH-G
17L/35R - 10001x100 - ASPH-G
ATIS:
120.3 303-799-6722
Clearance Delivery:
128.6
Ground:
121.8
Tower:
CENTENNIAL TOWER 118.9
DESTINATION
,
Elevation:
TPA:
1000 (est.)


6083.4 NM80° True-11° Var69° HDG

Flight Plan:
(click to file on line)

1. Type
2. Aircraft Identification
3. Aircraft Type / Special Equipment
4. True Airspeed
kts
5. Departure Airport
(ICAO code)
6. Arriving Airport
(ICAO code)
7. Cruising Altitude
ft
8. Alternate Airport
(ICAO code)
9. Route of Flight
10. Remarks


00:00:00 Departure ATIS: Destination ATIS:

Clearance Limit:
Route:
Altitude: Expect in minutes
Frequency:
Transponder: (7500 Hijack / 7600 Lost Comms / 7700 Emergency)


KAPA 010853Z 20009KT 10SM CLR 05/M05 A2981 RMK AO2 SLP062 T00501050 58010
Time: 2020-04-01T08:53:00Z
1585733167
Winds: 200 @ 9 kts
Visibility: 10.0 sm
Clouds (AGL): CLR
Temperature: 5.0 C
Dew Point: -5.0 C
Pressure: 29.811024 in Hgbr


Notes:

Data extracted from FAA Digital Chart Supplement. Effective: 0901Z Thursday, Mar 26, 2020 to 0901Z Thursday, May 21, 2020
Current ATIS data is provided courtisy of PilotEdge.